createdAt,value
2019-05-26T00:00:59.232Z,8.55
2019-05-26T00:03:30.390Z,7.72
2019-05-26T00:06:01.642Z,7.80
2019-05-26T00:08:32.825Z,7.78
2019-05-26T00:11:03.963Z,8.58
2019-05-26T00:13:35.249Z,8.20
2019-05-26T00:16:06.379Z,8.40
2019-05-26T00:18:37.535Z,9.73
2019-05-26T00:21:08.882Z,9.28
2019-05-26T00:23:40.277Z,9.08
2019-05-26T00:26:11.864Z,9.90
2019-05-26T00:28:43.216Z,10.82
2019-05-26T00:31:14.561Z,10.43
2019-05-26T00:33:45.991Z,10.18
2019-05-26T00:36:17.342Z,9.85
2019-05-26T00:38:48.571Z,10.70
2019-05-26T00:41:19.720Z,10.10
2019-05-26T00:43:51.027Z,9.45
2019-05-26T00:46:22.152Z,10.35
2019-05-26T00:48:53.365Z,9.83
2019-05-26T00:51:24.559Z,10.65
2019-05-26T00:53:55.761Z,9.93
2019-05-26T00:56:27.164Z,10.13
2019-05-26T00:58:58.492Z,9.90
2019-05-26T01:01:30.097Z,10.32
2019-05-26T01:04:02.313Z,10.15
2019-05-26T01:06:33.620Z,10.43
2019-05-26T01:09:06.674Z,10.35
2019-05-26T01:11:38.019Z,9.90
2019-05-26T01:14:09.368Z,9.28
2019-05-26T01:16:40.664Z,10.10
2019-05-26T01:19:12.009Z,9.18
2019-05-26T01:21:43.530Z,9.30
2019-05-26T01:24:15.152Z,10.18
2019-05-26T01:26:46.634Z,9.60
2019-05-26T01:29:18.090Z,9.95
2019-05-26T01:31:49.421Z,9.63
2019-05-26T01:34:20.766Z,9.13
2019-05-26T01:36:52.183Z,9.10
2019-05-26T01:39:23.535Z,9.83
2019-05-26T01:41:55.088Z,9.53
2019-05-26T01:44:26.416Z,9.93
2019-05-26T01:46:57.719Z,9.20
2019-05-26T01:49:29.164Z,9.60
2019-05-26T01:52:00.872Z,10.43
2019-05-26T01:54:32.720Z,10.15
2019-05-26T01:57:04.255Z,10.03
2019-05-26T01:59:35.550Z,9.55
2019-05-26T02:02:06.864Z,9.58
2019-05-26T02:04:38.178Z,9.75
2019-05-26T02:07:09.532Z,9.23
2019-05-26T02:09:40.997Z,9.18
2019-05-26T02:12:12.363Z,9.20
2019-05-26T02:14:43.704Z,9.55
2019-05-26T02:17:15.300Z,8.88
2019-05-26T02:19:46.880Z,8.75
2019-05-26T02:22:18.706Z,9.33
2019-05-26T02:24:50.222Z,8.58
2019-05-26T02:27:21.461Z,8.98
2019-05-26T02:29:52.798Z,9.73
2019-05-26T02:32:24.388Z,9.58
2019-05-26T02:34:55.720Z,9.55
2019-05-26T02:37:26.966Z,9.28
2019-05-26T02:39:58.265Z,9.58
2019-05-26T02:42:30.684Z,9.20
2019-05-26T02:45:02.919Z,10.28
2019-05-26T02:47:35.357Z,9.45
2019-05-26T02:50:07.179Z,9.35
2019-05-26T02:52:38.570Z,9.55
2019-05-26T02:55:10.832Z,9.63
2019-05-26T02:57:42.299Z,9.23
2019-05-26T03:00:13.957Z,9.95
2019-05-26T03:02:45.269Z,10.63
2019-05-26T03:05:16.798Z,9.50
2019-05-26T03:07:48.830Z,9.85
2019-05-26T03:10:20.453Z,9.88
2019-05-26T03:12:54.523Z,9.38
2019-05-26T03:15:25.792Z,9.68
2019-05-26T03:17:58.390Z,9.58
2019-05-26T03:20:31.229Z,9.25
2019-05-26T03:23:03.839Z,8.50
2019-05-26T03:25:36.334Z,9.00
2019-05-26T03:28:07.871Z,8.80
2019-05-26T03:30:39.204Z,8.75
2019-05-26T03:33:10.630Z,8.95
2019-05-26T03:35:43.110Z,9.00
2019-05-26T03:38:14.425Z,8.30
2019-05-26T03:40:45.966Z,8.63
2019-05-26T03:43:17.206Z,7.83
2019-05-26T03:46:17.525Z,8.53
2019-05-26T03:48:49.315Z,7.92
2019-05-26T03:51:21.185Z,7.25
2019-05-26T03:53:52.547Z,7.70
2019-05-26T03:56:24.057Z,7.35
2019-05-26T03:58:55.440Z,6.62
2019-05-26T04:01:27.916Z,7.62
2019-05-26T04:03:59.293Z,7.53
2019-05-26T04:06:30.614Z,7.12
2019-05-26T04:09:02.230Z,7.50
2019-05-26T04:11:33.650Z,7.00
2019-05-26T04:14:05.384Z,7.53
2019-05-26T04:16:38.848Z,7.20
2019-05-26T04:19:10.254Z,7.05
2019-05-26T04:21:41.553Z,7.03
2019-05-26T04:24:12.909Z,7.00
2019-05-26T04:26:44.180Z,7.22
2019-05-26T04:29:15.427Z,6.65
2019-05-26T04:31:46.732Z,6.17
2019-05-26T04:34:17.973Z,6.70
2019-05-26T04:36:49.339Z,11.45
2019-05-26T04:39:20.586Z,7.00
2019-05-26T04:41:52.115Z,6.72
2019-05-26T04:44:29.150Z,6.35
2019-05-26T04:47:00.423Z,6.55
2019-05-26T04:49:36.877Z,6.87
2019-05-26T04:52:04.868Z,6.92
2019-05-26T04:54:36.223Z,7.60
2019-05-26T04:57:08.144Z,7.97
2019-05-26T04:59:39.654Z,6.78
2019-05-26T05:02:11.446Z,6.62
2019-05-26T05:04:42.725Z,6.83
2019-05-26T05:07:14.017Z,6.72
2019-05-26T05:09:45.254Z,6.83
2019-05-26T05:12:16.763Z,6.50
2019-05-26T05:14:48.115Z,7.17
2019-05-26T05:17:19.409Z,6.85
2019-05-26T05:19:50.725Z,6.60
2019-05-26T05:22:22.115Z,6.80
2019-05-26T05:24:53.874Z,6.75
2019-05-26T05:27:25.443Z,6.25
2019-05-26T05:29:56.810Z,6.35
2019-05-26T05:32:28.139Z,6.12
2019-05-26T05:34:59.513Z,6.33
2019-05-26T05:37:30.918Z,6.03
2019-05-26T05:40:02.277Z,6.40
2019-05-26T05:42:33.598Z,6.40
2019-05-26T05:45:05.928Z,7.30
2019-05-26T05:47:37.395Z,5.85
2019-05-26T05:50:09.426Z,6.12
2019-05-26T05:52:41.042Z,6.25
2019-05-26T05:55:12.512Z,6.05
2019-05-26T05:57:43.833Z,5.83
2019-05-26T06:00:16.780Z,6.47
2019-05-26T06:02:48.267Z,6.40
2019-05-26T06:05:19.528Z,5.70
2019-05-26T06:07:50.820Z,5.58
2019-05-26T06:10:22.064Z,5.95
2019-05-26T06:12:53.353Z,6.05
2019-05-26T06:15:24.725Z,6.10
2019-05-26T06:17:56.699Z,6.55
2019-05-26T06:20:28.344Z,6.37
2019-05-26T06:22:59.834Z,6.22
2019-05-26T06:25:31.216Z,6.35
2019-05-26T06:28:02.616Z,6.05
2019-05-26T06:30:34.041Z,6.10
2019-05-26T06:33:07.366Z,6.25
2019-05-26T06:35:39.162Z,5.95
2019-05-26T06:38:10.589Z,5.58
2019-05-26T06:40:42.328Z,6.28
2019-05-26T06:43:13.797Z,6.45
2019-05-26T06:45:45.451Z,5.90
2019-05-26T06:48:16.912Z,5.90
2019-05-26T06:50:48.239Z,5.62
2019-05-26T06:53:19.560Z,5.72
2019-05-26T06:55:50.917Z,6.08
2019-05-26T06:58:22.103Z,6.42
2019-05-26T07:00:53.637Z,5.87
2019-05-26T07:03:24.970Z,6.08
2019-05-26T07:05:56.494Z,5.37
2019-05-26T07:08:28.039Z,6.40
2019-05-26T07:10:59.530Z,5.67
2019-05-26T07:13:30.800Z,5.30
2019-05-26T07:16:02.206Z,5.22
2019-05-26T07:18:33.339Z,5.55
2019-05-26T07:21:04.538Z,5.45
2019-05-26T07:23:35.753Z,5.35
2019-05-26T07:26:06.928Z,5.58
2019-05-26T07:28:38.181Z,5.95
2019-05-26T07:31:09.412Z,5.35
2019-05-26T07:33:40.612Z,4.45
2019-05-26T07:36:11.799Z,5.12
2019-05-26T07:38:43.026Z,4.97
2019-05-26T07:41:14.415Z,5.97
2019-05-26T07:43:46.553Z,5.33
2019-05-26T07:46:17.873Z,5.30
2019-05-26T07:48:49.045Z,5.25
2019-05-26T07:51:20.235Z,4.65
2019-05-26T07:53:51.443Z,4.87
2019-05-26T07:56:22.729Z,6.70
2019-05-26T07:58:53.958Z,5.03
2019-05-26T08:01:35.178Z,5.42
2019-05-26T08:03:58.083Z,5.92
2019-05-26T08:06:29.296Z,5.22
2019-05-26T08:09:00.710Z,5.15
2019-05-26T08:11:32.338Z,5.97
2019-05-26T08:14:03.628Z,5.70
2019-05-26T08:16:35.196Z,5.67
2019-05-26T08:19:06.319Z,6.15
2019-05-26T08:21:37.571Z,6.97
2019-05-26T08:24:08.747Z,6.62
2019-05-26T08:26:39.938Z,6.62
2019-05-26T08:29:11.123Z,5.78
2019-05-26T08:31:42.372Z,6.25
2019-05-26T08:34:13.528Z,6.30
2019-05-26T08:36:44.878Z,5.83
2019-05-26T08:39:16.153Z,5.87
2019-05-26T08:41:47.461Z,5.80
2019-05-26T08:44:18.892Z,5.37
2019-05-26T08:46:50.163Z,5.55
2019-05-26T08:49:21.417Z,5.87
2019-05-26T08:51:52.705Z,6.17
2019-05-26T08:54:23.919Z,5.83
2019-05-26T08:56:55.121Z,5.62
2019-05-26T08:59:26.249Z,6.33
2019-05-26T09:01:57.576Z,6.50
2019-05-26T09:04:28.717Z,6.97
2019-05-26T09:06:59.924Z,6.30
2019-05-26T09:09:31.164Z,6.85
2019-05-26T09:12:02.702Z,6.58
2019-05-26T09:14:33.960Z,6.95
2019-05-26T09:17:05.314Z,6.78
2019-05-26T09:19:36.727Z,9.08
2019-05-26T09:22:07.938Z,9.75
2019-05-26T09:24:39.141Z,7.42
2019-05-26T09:27:10.328Z,7.00
2019-05-26T09:29:41.482Z,7.55
2019-05-26T09:32:12.686Z,7.33
2019-05-26T09:34:43.847Z,7.20
2019-05-26T09:37:15.010Z,7.25
2019-05-26T09:39:46.203Z,7.12
2019-05-26T09:42:17.347Z,7.22
2019-05-26T09:44:48.709Z,8.20
2019-05-26T09:47:19.980Z,6.97
2019-05-26T09:49:51.190Z,7.92
2019-05-26T09:52:22.419Z,8.45
2019-05-26T09:54:53.665Z,7.37
2019-05-26T09:57:25.098Z,7.08
2019-05-26T09:59:56.314Z,9.98
2019-05-26T10:02:27.538Z,7.08
2019-05-26T10:04:58.751Z,7.58
2019-05-26T10:07:29.993Z,8.25
2019-05-26T10:10:01.230Z,7.97
2019-05-26T10:12:32.520Z,8.10
2019-05-26T10:15:03.826Z,7.55
2019-05-26T10:17:35.122Z,8.13
2019-05-26T10:20:07.429Z,8.20
2019-05-26T10:22:39.759Z,7.50
2019-05-26T10:25:12.424Z,7.95
2019-05-26T10:27:44.760Z,8.18
2019-05-26T10:30:16.236Z,7.70
2019-05-26T10:32:47.678Z,7.58
2019-05-26T10:35:18.853Z,7.85
2019-05-26T10:37:50.045Z,6.62
2019-05-26T10:40:21.479Z,6.33
2019-05-26T10:42:52.858Z,6.85
2019-05-26T10:45:24.221Z,6.87
2019-05-26T10:47:55.576Z,6.70
2019-05-26T10:50:26.798Z,7.17
2019-05-26T10:52:58.029Z,6.60
2019-05-26T10:55:29.233Z,6.47
2019-05-26T10:58:00.470Z,6.53
2019-05-26T11:00:33.127Z,5.70
2019-05-26T11:03:04.680Z,5.85
2019-05-26T11:05:35.839Z,5.65
2019-05-26T11:08:07.143Z,5.58
2019-05-26T11:10:38.334Z,5.08
2019-05-26T11:13:09.706Z,5.17
2019-05-26T11:15:40.994Z,5.12
2019-05-26T11:18:12.285Z,4.37
2019-05-26T11:20:43.595Z,4.30
2019-05-26T11:23:14.838Z,4.87
2019-05-26T11:25:46.117Z,4.30
2019-05-26T11:28:17.316Z,4.55
2019-05-26T11:30:48.580Z,4.67
2019-05-26T11:33:19.827Z,4.22
2019-05-26T11:35:51.080Z,4.47
2019-05-26T11:38:22.265Z,3.92
2019-05-26T11:40:53.587Z,3.95
2019-05-26T11:43:24.949Z,4.17
2019-05-26T11:45:56.433Z,3.87
2019-05-26T11:48:28.825Z,4.20
2019-05-26T11:50:59.976Z,3.55
2019-05-26T11:53:31.210Z,4.22
2019-05-26T11:56:02.549Z,4.08
2019-05-26T11:58:34.857Z,3.25
2019-05-26T12:01:06.077Z,2.85
2019-05-26T12:03:37.207Z,3.30
2019-05-26T12:06:08.423Z,2.87
2019-05-26T12:08:39.664Z,2.72
2019-05-26T12:11:11.011Z,2.65
2019-05-26T12:13:42.311Z,3.15
2019-05-26T12:16:13.788Z,3.17
2019-05-26T12:18:44.996Z,2.67
2019-05-26T12:21:16.137Z,2.80
2019-05-26T12:23:47.417Z,2.70
2019-05-26T12:26:18.575Z,2.90
2019-05-26T12:28:49.802Z,2.87
2019-05-26T12:31:21.026Z,2.83
2019-05-26T12:33:52.203Z,3.40
2019-05-26T12:36:23.430Z,3.25
2019-05-26T12:38:54.544Z,3.00
2019-05-26T12:41:25.771Z,3.27
2019-05-26T12:43:57.121Z,2.77
2019-05-26T12:46:28.383Z,3.02
2019-05-26T12:48:59.633Z,3.30
2019-05-26T12:51:30.784Z,3.52
2019-05-26T12:54:02.026Z,3.27
2019-05-26T12:56:33.172Z,3.08
2019-05-26T12:59:04.456Z,3.20
2019-05-26T13:01:35.713Z,3.10
2019-05-26T13:04:06.901Z,3.22
2019-05-26T13:06:38.112Z,3.42
2019-05-26T13:09:11.507Z,3.80
2019-05-26T13:11:42.793Z,3.50
2019-05-26T13:14:14.103Z,3.47
2019-05-26T13:16:45.436Z,3.85
2019-05-26T13:19:17.604Z,3.67
2019-05-26T13:21:48.742Z,3.65
2019-05-26T13:24:19.965Z,3.47
2019-05-26T13:26:51.129Z,3.72
2019-05-26T13:29:25.655Z,3.10
2019-05-26T13:31:55.180Z,3.58
2019-05-26T13:34:26.398Z,3.20
2019-05-26T13:36:57.600Z,3.17
2019-05-26T13:39:28.927Z,3.55
2019-05-26T13:42:00.183Z,4.58
2019-05-26T13:44:31.609Z,2.72
2019-05-26T13:47:02.863Z,2.87
2019-05-26T13:49:34.197Z,3.70
2019-05-26T13:52:06.423Z,3.15
2019-05-26T13:54:37.635Z,2.80
2019-05-26T13:57:08.865Z,2.58
2019-05-26T13:59:40.080Z,2.98
2019-05-26T14:02:11.276Z,2.67
2019-05-26T14:04:42.561Z,2.60
2019-05-26T14:07:13.722Z,2.75
2019-05-26T14:09:45.082Z,2.95
2019-05-26T14:12:16.352Z,2.60
2019-05-26T14:14:47.644Z,2.45
2019-05-26T14:17:19.137Z,2.60
2019-05-26T14:19:51.820Z,2.42
2019-05-26T14:22:23.023Z,2.58
2019-05-26T14:24:54.521Z,2.42
2019-05-26T14:27:25.817Z,2.42
2019-05-26T14:29:57.026Z,3.08
2019-05-26T14:32:28.312Z,3.00
2019-05-26T14:34:59.653Z,2.60
2019-05-26T14:37:31.069Z,2.67
2019-05-26T14:40:02.300Z,2.58
2019-05-26T14:42:33.669Z,2.75
2019-05-26T14:45:05.770Z,2.95
2019-05-26T14:47:36.989Z,2.52
2019-05-26T14:50:08.342Z,2.60
2019-05-26T14:52:39.589Z,2.70
2019-05-26T14:55:10.848Z,2.65
2019-05-26T14:57:42.153Z,2.72
2019-05-26T15:00:15.437Z,3.35
2019-05-26T15:02:46.872Z,2.98
2019-05-26T15:05:18.536Z,2.45
2019-05-26T15:07:49.798Z,2.62
2019-05-26T15:10:22.713Z,2.50
2019-05-26T15:12:54.229Z,2.67
2019-05-26T15:15:25.503Z,2.27
2019-05-26T15:17:57.781Z,2.12
2019-05-26T15:20:29.024Z,2.37
2019-05-26T15:23:00.226Z,2.55
2019-05-26T15:25:31.465Z,2.30
2019-05-26T15:28:02.972Z,2.10
2019-05-26T15:30:34.412Z,2.30
2019-05-26T15:33:05.812Z,2.15
2019-05-26T15:35:37.141Z,2.33
2019-05-26T15:38:08.344Z,2.10
2019-05-26T15:40:39.558Z,2.60
2019-05-26T15:43:10.984Z,2.52
2019-05-26T15:45:42.202Z,2.40
2019-05-26T15:48:13.460Z,2.10
2019-05-26T15:50:44.692Z,2.35
2019-05-26T15:53:15.872Z,2.80
2019-05-26T15:55:47.097Z,2.60
2019-05-26T15:58:18.361Z,2.80
2019-05-26T16:00:49.887Z,2.72
2019-05-26T16:03:21.155Z,2.92
2019-05-26T16:05:52.492Z,2.75
2019-05-26T16:08:23.763Z,2.95
2019-05-26T16:10:54.959Z,2.45
2019-05-26T16:13:26.159Z,2.80
2019-05-26T16:15:58.328Z,2.25
2019-05-26T16:18:29.558Z,2.50
2019-05-26T16:21:03.380Z,3.20
2019-05-26T16:23:33.700Z,2.72
2019-05-26T16:26:05.132Z,2.58
2019-05-26T16:28:36.771Z,2.77
2019-05-26T16:31:12.154Z,3.05
2019-05-26T16:33:42.144Z,2.70
2019-05-26T16:36:13.308Z,2.95
2019-05-26T16:38:45.469Z,3.00
2019-05-26T16:41:16.649Z,2.75
2019-05-26T16:43:48.351Z,3.15
2019-05-26T16:46:19.497Z,2.90
2019-05-26T16:48:54.270Z,2.90
2019-05-26T16:51:23.827Z,3.37
2019-05-26T16:53:55.152Z,3.15
2019-05-26T16:56:26.347Z,2.72
2019-05-26T16:58:57.536Z,3.27
2019-05-26T17:01:28.741Z,3.10
2019-05-26T17:03:59.932Z,2.72
2019-05-26T17:06:31.225Z,2.70
2019-05-26T17:09:02.606Z,2.92
2019-05-26T17:11:33.854Z,3.12
2019-05-26T17:14:05.481Z,3.10
2019-05-26T17:16:36.685Z,2.87
2019-05-26T17:19:08.060Z,3.15
2019-05-26T17:21:39.374Z,3.17
2019-05-26T17:24:10.633Z,3.17
2019-05-26T17:26:41.934Z,2.90
2019-05-26T17:29:13.184Z,3.50
2019-05-26T17:31:44.608Z,3.08
2019-05-26T17:34:15.721Z,3.45
2019-05-26T17:36:47.011Z,3.47
2019-05-26T17:39:18.271Z,2.77
2019-05-26T17:41:49.499Z,2.85
2019-05-26T17:44:20.724Z,3.00
2019-05-26T17:46:52.037Z,3.35
2019-05-26T17:49:23.548Z,3.02
2019-05-26T17:51:55.113Z,3.25
2019-05-26T17:54:26.357Z,3.00
2019-05-26T17:56:57.704Z,3.42
2019-05-26T17:59:28.958Z,3.15
2019-05-26T18:02:00.160Z,3.40
2019-05-26T18:04:31.394Z,3.10
2019-05-26T18:07:02.599Z,3.17
2019-05-26T18:09:43.658Z,3.45
2019-05-26T18:12:06.770Z,3.08
2019-05-26T18:14:37.890Z,3.05
2019-05-26T18:17:09.315Z,3.08
2019-05-26T18:19:40.592Z,3.50
2019-05-26T18:22:12.072Z,3.27
2019-05-26T18:24:54.654Z,3.02
2019-05-26T18:27:16.363Z,2.90
2019-05-26T18:29:47.601Z,2.92
2019-05-26T18:32:18.800Z,3.17
2019-05-26T18:34:50.142Z,3.17
2019-05-26T18:37:21.348Z,2.90
2019-05-26T18:39:53.796Z,2.98
2019-05-26T18:42:25.170Z,3.30
2019-05-26T18:44:56.574Z,3.30
2019-05-26T18:47:27.951Z,2.95
2019-05-26T18:49:59.348Z,2.77
2019-05-26T18:52:30.627Z,2.98
2019-05-26T18:55:01.971Z,3.20
2019-05-26T18:57:33.264Z,3.25
2019-05-26T19:00:05.167Z,3.08
2019-05-26T19:02:36.449Z,3.10
2019-05-26T19:05:07.903Z,2.98
2019-05-26T19:07:39.259Z,2.80
2019-05-26T19:10:12.378Z,3.08
2019-05-26T19:12:43.875Z,2.67
2019-05-26T19:15:16.555Z,2.92
2019-05-26T19:17:47.759Z,2.92
2019-05-26T19:20:19.002Z,3.00
2019-05-26T19:22:53.289Z,2.87
2019-05-26T19:25:23.313Z,3.55
2019-05-26T19:27:54.751Z,3.58
2019-05-26T19:30:25.985Z,3.10
2019-05-26T19:32:57.693Z,3.10
2019-05-26T19:35:28.944Z,3.20
2019-05-26T19:38:00.770Z,2.85
2019-05-26T19:40:32.038Z,3.20
2019-05-26T19:43:03.433Z,2.40
2019-05-26T19:45:34.642Z,2.80
2019-05-26T19:48:05.958Z,2.80
2019-05-26T19:50:37.687Z,2.90
2019-05-26T19:53:08.977Z,2.60
2019-05-26T19:55:40.243Z,2.60
2019-05-26T19:58:11.516Z,2.72
2019-05-26T20:00:42.752Z,2.85
2019-05-26T20:03:14.226Z,2.62
2019-05-26T20:05:45.778Z,2.67
2019-05-26T20:08:17.138Z,2.92
2019-05-26T20:10:48.458Z,2.70
2019-05-26T20:13:19.678Z,3.00
2019-05-26T20:15:51.004Z,2.83
2019-05-26T20:18:22.185Z,2.70
2019-05-26T20:20:53.467Z,2.92
2019-05-26T20:23:24.661Z,2.52
2019-05-26T20:25:55.866Z,2.80
2019-05-26T20:28:27.172Z,2.77
2019-05-26T20:30:58.319Z,2.58
2019-05-26T20:33:29.681Z,2.65
2019-05-26T20:36:01.035Z,2.50
2019-05-26T20:38:33.489Z,2.65
2019-05-26T20:41:05.326Z,2.83
2019-05-26T20:43:36.851Z,2.75
2019-05-26T20:46:09.231Z,2.70
2019-05-26T20:48:40.416Z,2.85
2019-05-26T20:51:11.689Z,2.83
2019-05-26T20:53:42.964Z,2.80
2019-05-26T20:56:14.357Z,3.30
2019-05-26T20:58:45.632Z,2.50
2019-05-26T21:01:16.995Z,2.83
2019-05-26T21:03:48.613Z,2.90
2019-05-26T21:06:20.259Z,2.98
2019-05-26T21:08:51.856Z,2.60
2019-05-26T21:11:23.143Z,2.62
2019-05-26T21:13:54.373Z,2.60
2019-05-26T21:16:25.627Z,2.80
2019-05-26T21:18:56.999Z,3.12
2019-05-26T21:21:28.331Z,2.87
2019-05-26T21:23:59.706Z,2.85
2019-05-26T21:26:31.102Z,2.52
2019-05-26T21:29:02.402Z,2.80
2019-05-26T21:31:33.673Z,2.70
2019-05-26T21:34:07.347Z,2.62
2019-05-26T21:36:38.593Z,2.90
2019-05-26T21:39:09.802Z,2.87
2019-05-26T21:41:41.055Z,2.90
2019-05-26T21:44:12.290Z,2.70
2019-05-26T21:46:43.460Z,2.98
2019-05-26T21:49:14.761Z,2.83
2019-05-26T21:51:45.993Z,3.40
2019-05-26T21:54:17.238Z,2.90
2019-05-26T21:56:48.665Z,3.17
2019-05-26T21:59:20.060Z,4.15
2019-05-26T22:01:51.594Z,3.10
2019-05-26T22:04:22.804Z,2.70
2019-05-26T22:06:54.213Z,2.80
2019-05-26T22:09:25.491Z,3.08
2019-05-26T22:11:56.895Z,3.27
2019-05-26T22:14:26.918Z,2.70
2019-05-26T22:16:57.853Z,3.08
2019-05-26T22:19:29.098Z,3.30
2019-05-26T22:22:01.373Z,3.20
2019-05-26T22:24:32.571Z,3.20
2019-05-26T22:27:03.835Z,3.27
2019-05-26T22:29:35.189Z,2.92
2019-05-26T22:32:06.407Z,3.27
2019-05-26T22:34:37.730Z,3.00
2019-05-26T22:37:08.934Z,3.30
2019-05-26T22:39:41.112Z,3.10
2019-05-26T22:42:12.432Z,2.80
2019-05-26T22:44:43.718Z,3.00
2019-05-26T22:47:14.914Z,3.10
2019-05-26T22:49:46.096Z,3.20
2019-05-26T22:52:18.240Z,3.02
2019-05-26T22:54:49.418Z,3.05
2019-05-26T22:57:20.941Z,3.05
2019-05-26T22:59:52.237Z,3.33
2019-05-26T23:02:23.694Z,3.02
2019-05-26T23:04:54.916Z,3.20
2019-05-26T23:07:26.192Z,3.00
2019-05-26T23:09:57.346Z,2.75
2019-05-26T23:12:28.592Z,2.83
2019-05-26T23:14:59.844Z,3.02
2019-05-26T23:17:31.064Z,3.27
2019-05-26T23:20:02.407Z,3.20
2019-05-26T23:22:33.619Z,2.90
2019-05-26T23:25:05.931Z,3.37
2019-05-26T23:27:37.256Z,3.17
2019-05-26T23:30:10.022Z,3.30
2019-05-26T23:32:41.247Z,3.22
2019-05-26T23:35:13.287Z,3.20
2019-05-26T23:37:44.533Z,3.12
2019-05-26T23:40:15.757Z,3.02
2019-05-26T23:42:46.967Z,3.15
2019-05-26T23:45:18.223Z,3.17
2019-05-26T23:47:49.407Z,3.12
2019-05-26T23:50:20.581Z,3.40
2019-05-26T23:52:51.773Z,2.90
2019-05-26T23:55:23.202Z,2.98
2019-05-26T23:57:54.540Z,3.15
